sensor_id;sensor_type;location;lat;lon;timestamp;pressure;altitude;pressure_sealevel;temperature
60731;BMP280;46580;52.114;11.674;2022-12-18T00:00:58;102714.09;;;-5.22
60731;BMP280;46580;52.114;11.674;2022-12-18T00:03:25;102705.84;;;-5.16
60731;BMP280;46580;52.114;11.674;2022-12-18T00:05:51;102701.72;;;-5.11
60731;BMP280;46580;52.114;11.674;2022-12-18T00:08:18;102701.13;;;-5.00
60731;BMP280;46580;52.114;11.674;2022-12-18T00:10:44;102703.97;;;-5.27
60731;BMP280;46580;52.114;11.674;2022-12-18T00:13:10;102705.41;;;-5.40
60731;BMP280;46580;52.114;11.674;2022-12-18T00:15:37;102700.75;;;-5.19
60731;BMP280;46580;52.114;11.674;2022-12-18T00:18:03;102708.47;;;-5.08
60731;BMP280;46580;52.114;11.674;2022-12-18T00:20:29;102706.66;;;-5.17
60731;BMP280;46580;52.114;11.674;2022-12-18T00:22:54;102701.38;;;-5.31
60731;BMP280;46580;52.114;11.674;2022-12-18T00:25:20;102703.09;;;-5.29
60731;BMP280;46580;52.114;11.674;2022-12-18T00:27:45;102705.56;;;-5.30
60731;BMP280;46580;52.114;11.674;2022-12-18T00:30:11;102713.66;;;-5.44
60731;BMP280;46580;52.114;11.674;2022-12-18T00:32:36;102719.91;;;-5.23
60731;BMP280;46580;52.114;11.674;2022-12-18T00:35:03;102718.28;;;-5.21
60731;BMP280;46580;52.114;11.674;2022-12-18T00:37:28;102725.84;;;-5.19
60731;BMP280;46580;52.114;11.674;2022-12-18T00:39:54;102718.09;;;-5.33
60731;BMP280;46580;52.114;11.674;2022-12-18T00:42:20;102717.31;;;-5.29
60731;BMP280;46580;52.114;11.674;2022-12-18T00:45:04;102708.19;;;-5.26
60731;BMP280;46580;52.114;11.674;2022-12-18T00:47:30;102709.94;;;-5.20
60731;BMP280;46580;52.114;11.674;2022-12-18T00:49:55;102705.97;;;-5.08
60731;BMP280;46580;52.114;11.674;2022-12-18T00:52:21;102713.44;;;-5.13
60731;BMP280;46580;52.114;11.674;2022-12-18T00:54:46;102711.66;;;-5.19
60731;BMP280;46580;52.114;11.674;2022-12-18T00:57:12;102712.38;;;-5.23
60731;BMP280;46580;52.114;11.674;2022-12-18T00:59:38;102713.03;;;-5.35
60731;BMP280;46580;52.114;11.674;2022-12-18T01:02:03;102719.00;;;-5.28
60731;BMP280;46580;52.114;11.674;2022-12-18T01:04:31;102717.38;;;-5.26
60731;BMP280;46580;52.114;11.674;2022-12-18T01:06:57;102725.81;;;-5.66
60731;BMP280;46580;52.114;11.674;2022-12-18T01:09:22;102737.63;;;-5.58
60731;BMP280;46580;52.114;11.674;2022-12-18T01:11:48;102723.56;;;-5.52
60731;BMP280;46580;52.114;11.674;2022-12-18T01:14:13;102735.50;;;-5.39
60731;BMP280;46580;52.114;11.674;2022-12-18T01:16:39;102737.16;;;-5.41
60731;BMP280;46580;52.114;11.674;2022-12-18T01:19:04;102730.47;;;-5.39
60731;BMP280;46580;52.114;11.674;2022-12-18T01:21:30;102738.91;;;-5.37
60731;BMP280;46580;52.114;11.674;2022-12-18T01:23:55;102732.03;;;-5.47
60731;BMP280;46580;52.114;11.674;2022-12-18T01:26:22;102748.47;;;-5.60
60731;BMP280;46580;52.114;11.674;2022-12-18T01:28:48;102755.31;;;-5.54
60731;BMP280;46580;52.114;11.674;2022-12-18T01:33:49;102756.66;;;-5.70
60731;BMP280;46580;52.114;11.674;2022-12-18T01:36:17;102749.59;;;-5.45
60731;BMP280;46580;52.114;11.674;2022-12-18T01:38:45;102743.03;;;-5.39
60731;BMP280;46580;52.114;11.674;2022-12-18T01:41:11;102748.34;;;-5.24
60731;BMP280;46580;52.114;11.674;2022-12-18T01:43:52;102750.75;;;-5.30
60731;BMP280;46580;52.114;11.674;2022-12-18T01:46:21;102754.03;;;-5.34
60731;BMP280;46580;52.114;11.674;2022-12-18T01:48:48;102762.38;;;-5.35
60731;BMP280;46580;52.114;11.674;2022-12-18T01:51:15;102764.38;;;-5.58
60731;BMP280;46580;52.114;11.674;2022-12-18T01:53:43;102773.22;;;-5.36
60731;BMP280;46580;52.114;11.674;2022-12-18T01:56:13;102773.44;;;-5.24
60731;BMP280;46580;52.114;11.674;2022-12-18T01:58:46;102778.22;;;-5.36
60731;BMP280;46580;52.114;11.674;2022-12-18T02:01:13;102768.97;;;-5.40
60731;BMP280;46580;52.114;11.674;2022-12-18T02:03:41;102772.09;;;-5.50
60731;BMP280;46580;52.114;11.674;2022-12-18T02:06:21;102774.72;;;-5.44
60731;BMP280;46580;52.114;11.674;2022-12-18T02:09:14;102778.22;;;-5.36
60731;BMP280;46580;52.114;11.674;2022-12-18T02:14:31;102783.13;;;-5.42
60731;BMP280;46580;52.114;11.674;2022-12-18T02:20:31;102768.66;;;-5.55
60731;BMP280;46580;52.114;11.674;2022-12-18T02:25:16;102767.81;;;-5.55
60731;BMP280;46580;52.114;11.674;2022-12-18T02:27:45;102762.03;;;-5.53
60731;BMP280;46580;52.114;11.674;2022-12-18T02:30:13;102758.66;;;-5.52
60731;BMP280;46580;52.114;11.674;2022-12-18T02:32:44;102755.16;;;-5.61
60731;BMP280;46580;52.114;11.674;2022-12-18T02:35:16;102758.66;;;-5.53
60731;BMP280;46580;52.114;11.674;2022-12-18T02:37:43;102758.28;;;-5.72
60731;BMP280;46580;52.114;11.674;2022-12-18T02:40:11;102756.13;;;-5.95
60731;BMP280;46580;52.114;11.674;2022-12-18T02:42:38;102751.09;;;-5.96
60731;BMP280;46580;52.114;11.674;2022-12-18T02:45:04;102747.16;;;-5.84
60731;BMP280;46580;52.114;11.674;2022-12-18T02:47:36;102744.88;;;-5.74
60731;BMP280;46580;52.114;11.674;2022-12-18T02:50:24;102745.59;;;-5.79
60731;BMP280;46580;52.114;11.674;2022-12-18T02:58:34;102759.25;;;-5.67
60731;BMP280;46580;52.114;11.674;2022-12-18T03:01:31;102756.63;;;-5.73
60731;BMP280;46580;52.114;11.674;2022-12-18T03:04:25;102765.69;;;-5.78
60731;BMP280;46580;52.114;11.674;2022-12-18T03:06:55;102761.47;;;-5.79
60731;BMP280;46580;52.114;11.674;2022-12-18T03:09:38;102765.00;;;-5.71
60731;BMP280;46580;52.114;11.674;2022-12-18T03:12:15;102758.16;;;-5.78
60731;BMP280;46580;52.114;11.674;2022-12-18T03:15:42;102768.66;;;-5.55
60731;BMP280;46580;52.114;11.674;2022-12-18T03:17:43;102762.84;;;-5.52
60731;BMP280;46580;52.114;11.674;2022-12-18T03:20:17;102777.31;;;-5.81
60731;BMP280;46580;52.114;11.674;2022-12-18T03:22:46;102775.78;;;-5.75
60731;BMP280;46580;52.114;11.674;2022-12-18T03:25:16;102785.00;;;-5.74
60731;BMP280;46580;52.114;11.674;2022-12-18T03:27:46;102790.44;;;-5.52
60731;BMP280;46580;52.114;11.674;2022-12-18T03:30:14;102783.63;;;-5.57
60731;BMP280;46580;52.114;11.674;2022-12-18T03:32:46;102785.56;;;-5.46
60731;BMP280;46580;52.114;11.674;2022-12-18T03:35:15;102785.53;;;-5.48
60731;BMP280;46580;52.114;11.674;2022-12-18T03:37:43;102787.31;;;-5.42
60731;BMP280;46580;52.114;11.674;2022-12-18T03:40:09;102781.47;;;-5.41
60731;BMP280;46580;52.114;11.674;2022-12-18T03:42:48;102779.56;;;-5.54
60731;BMP280;46580;52.114;11.674;2022-12-18T03:48:02;102773.06;;;-5.43
60731;BMP280;46580;52.114;11.674;2022-12-18T03:50:46;102779.66;;;-5.48
60731;BMP280;46580;52.114;11.674;2022-12-18T03:55:55;102783.03;;;-5.48
60731;BMP280;46580;52.114;11.674;2022-12-18T03:58:24;102769.63;;;-5.48
60731;BMP280;46580;52.114;11.674;2022-12-18T04:00:53;102776.66;;;-5.33
60731;BMP280;46580;52.114;11.674;2022-12-18T04:03:20;102786.97;;;-5.58
60731;BMP280;46580;52.114;11.674;2022-12-18T04:05:50;102780.28;;;-5.58
60731;BMP280;46580;52.114;11.674;2022-12-18T04:08:16;102767.34;;;-5.78
60731;BMP280;46580;52.114;11.674;2022-12-18T04:10:42;102770.81;;;-5.74
60731;BMP280;46580;52.114;11.674;2022-12-18T04:13:08;102765.06;;;-5.68
60731;BMP280;46580;52.114;11.674;2022-12-18T04:15:35;102761.94;;;-5.56
60731;BMP280;46580;52.114;11.674;2022-12-18T04:18:01;102767.16;;;-5.47
60731;BMP280;46580;52.114;11.674;2022-12-18T04:20:27;102758.63;;;-5.55
60731;BMP280;46580;52.114;11.674;2022-12-18T04:22:53;102763.56;;;-5.57
60731;BMP280;46580;52.114;11.674;2022-12-18T04:25:19;102763.44;;;-5.66
60731;BMP280;46580;52.114;11.674;2022-12-18T04:27:45;102768.28;;;-5.75
60731;BMP280;46580;52.114;11.674;2022-12-18T04:30:10;102768.88;;;-5.85
60731;BMP280;46580;52.114;11.674;2022-12-18T04:32:36;102758.94;;;-5.82
60731;BMP280;46580;52.114;11.674;2022-12-18T04:35:02;102760.88;;;-5.69
60731;BMP280;46580;52.114;11.674;2022-12-18T04:37:29;102757.00;;;-5.53
60731;BMP280;46580;52.114;11.674;2022-12-18T04:39:55;102758.44;;;-5.66
60731;BMP280;46580;52.114;11.674;2022-12-18T04:42:20;102753.34;;;-5.69
60731;BMP280;46580;52.114;11.674;2022-12-18T04:44:46;102761.06;;;-5.57
60731;BMP280;46580;52.114;11.674;2022-12-18T04:47:12;102774.47;;;-5.57
60731;BMP280;46580;52.114;11.674;2022-12-18T04:49:38;102776.81;;;-5.67
60731;BMP280;46580;52.114;11.674;2022-12-18T04:52:04;102786.44;;;-5.85
60731;BMP280;46580;52.114;11.674;2022-12-18T04:54:29;102799.25;;;-5.72
60731;BMP280;46580;52.114;11.674;2022-12-18T04:56:54;102801.59;;;-5.79
60731;BMP280;46580;52.114;11.674;2022-12-18T04:59:20;102796.97;;;-5.99
60731;BMP280;46580;52.114;11.674;2022-12-18T05:01:45;102796.59;;;-5.79
60731;BMP280;46580;52.114;11.674;2022-12-18T05:04:11;102803.41;;;-5.74
60731;BMP280;46580;52.114;11.674;2022-12-18T05:06:36;102805.75;;;-5.81
60731;BMP280;46580;52.114;11.674;2022-12-18T05:09:01;102805.25;;;-6.03
60731;BMP280;46580;52.114;11.674;2022-12-18T05:11:27;102813.06;;;-5.90
60731;BMP280;46580;52.114;11.674;2022-12-18T05:13:52;102809.81;;;-5.86
60731;BMP280;46580;52.114;11.674;2022-12-18T05:16:17;102806.78;;;-5.73
60731;BMP280;46580;52.114;11.674;2022-12-18T05:18:43;102806.78;;;-5.73
60731;BMP280;46580;52.114;11.674;2022-12-18T05:21:08;102800.19;;;-5.68
60731;BMP280;46580;52.114;11.674;2022-12-18T05:23:34;102792.72;;;-5.64
60731;BMP280;46580;52.114;11.674;2022-12-18T05:26:01;102792.53;;;-5.73
60731;BMP280;46580;52.114;11.674;2022-12-18T05:28:29;102790.88;;;-5.72
60731;BMP280;46580;52.114;11.674;2022-12-18T05:30:57;102796.44;;;-5.46
60731;BMP280;46580;52.114;11.674;2022-12-18T05:33:25;102791.44;;;-5.46
60731;BMP280;46580;52.114;11.674;2022-12-18T05:35:56;102797.84;;;-5.58
60731;BMP280;46580;52.114;11.674;2022-12-18T05:38:27;102795.34;;;-5.59
60731;BMP280;46580;52.114;11.674;2022-12-18T05:40:52;102791.97;;;-5.60
60731;BMP280;46580;52.114;11.674;2022-12-18T05:43:19;102791.09;;;-5.62
60731;BMP280;46580;52.114;11.674;2022-12-18T05:45:47;102799.47;;;-5.61
60731;BMP280;46580;52.114;11.674;2022-12-18T05:48:13;102788.69;;;-5.56
60731;BMP280;46580;52.114;11.674;2022-12-18T05:50:40;102799.47;;;-5.61
60731;BMP280;46580;52.114;11.674;2022-12-18T05:53:05;102798.56;;;-5.65
60731;BMP280;46580;52.114;11.674;2022-12-18T05:55:35;102795.34;;;-5.58
60731;BMP280;46580;52.114;11.674;2022-12-18T05:58:02;102821.75;;;-5.76
60731;BMP280;46580;52.114;11.674;2022-12-18T06:00:28;102833.50;;;-5.72
60731;BMP280;46580;52.114;11.674;2022-12-18T06:02:54;102828.59;;;-5.69
60731;BMP280;46580;52.114;11.674;2022-12-18T06:05:19;102821.19;;;-5.62
60731;BMP280;46580;52.114;11.674;2022-12-18T06:07:45;102820.03;;;-5.77
60731;BMP280;46580;52.114;11.674;2022-12-18T06:10:10;102819.06;;;-5.83
60731;BMP280;46580;52.114;11.674;2022-12-18T06:12:37;102818.34;;;-5.78
60731;BMP280;46580;52.114;11.674;2022-12-18T06:15:02;102815.22;;;-5.68
60731;BMP280;46580;52.114;11.674;2022-12-18T06:17:32;102818.69;;;-5.62
60731;BMP280;46580;52.114;11.674;2022-12-18T06:19:57;102826.84;;;-5.73
60731;BMP280;46580;52.114;11.674;2022-12-18T06:22:23;102822.63;;;-5.73
60731;BMP280;46580;52.114;11.674;2022-12-18T06:24:49;102825.75;;;-5.84
60731;BMP280;46580;52.114;11.674;2022-12-18T06:27:14;102819.31;;;-5.73
60731;BMP280;46580;52.114;11.674;2022-12-18T06:29:41;102813.41;;;-5.75
60731;BMP280;46580;52.114;11.674;2022-12-18T06:32:06;102821.66;;;-5.79
60731;BMP280;46580;52.114;11.674;2022-12-18T06:34:37;102814.97;;;-5.80
60731;BMP280;46580;52.114;11.674;2022-12-18T06:37:03;102815.63;;;-5.88
60731;BMP280;46580;52.114;11.674;2022-12-18T06:39:28;102814.78;;;-5.89
60731;BMP280;46580;52.114;11.674;2022-12-18T06:41:54;102821.63;;;-5.82
60731;BMP280;46580;52.114;11.674;2022-12-18T06:44:19;102817.53;;;-5.77
60731;BMP280;46580;52.114;11.674;2022-12-18T06:46:45;102826.06;;;-6.05
60731;BMP280;46580;52.114;11.674;2022-12-18T06:49:17;102824.47;;;-6.03
60731;BMP280;46580;52.114;11.674;2022-12-18T06:51:43;102827.56;;;-5.77
60731;BMP280;46580;52.114;11.674;2022-12-18T06:54:08;102830.59;;;-5.91
60731;BMP280;46580;52.114;11.674;2022-12-18T06:56:34;102828.38;;;-5.78
60731;BMP280;46580;52.114;11.674;2022-12-18T06:58:59;102827.19;;;-5.94
60731;BMP280;46580;52.114;11.674;2022-12-18T07:01:24;102835.38;;;-6.01
60731;BMP280;46580;52.114;11.674;2022-12-18T07:03:55;102825.41;;;-5.98
60731;BMP280;46580;52.114;11.674;2022-12-18T07:06:22;102838.19;;;-6.23
60731;BMP280;46580;52.114;11.674;2022-12-18T07:08:48;102848.13;;;-6.27
60731;BMP280;46580;52.114;11.674;2022-12-18T07:11:15;102844.25;;;-6.15
60731;BMP280;46580;52.114;11.674;2022-12-18T07:13:41;102838.94;;;-6.27
60731;BMP280;46580;52.114;11.674;2022-12-18T07:16:08;102848.97;;;-6.27
60731;BMP280;46580;52.114;11.674;2022-12-18T07:18:34;102841.88;;;-6.09
60731;BMP280;46580;52.114;11.674;2022-12-18T07:21:05;102851.13;;;-6.07
60731;BMP280;46580;52.114;11.674;2022-12-18T07:23:33;102857.81;;;-6.07
60731;BMP280;46580;52.114;11.674;2022-12-18T07:26:04;102869.84;;;-5.92
60731;BMP280;46580;52.114;11.674;2022-12-18T07:28:31;102868.78;;;-6.02
60731;BMP280;46580;52.114;11.674;2022-12-18T07:30:57;102878.16;;;-5.94
60731;BMP280;46580;52.114;11.674;2022-12-18T07:33:22;102880.19;;;-6.13
60731;BMP280;46580;52.114;11.674;2022-12-18T07:35:48;102881.88;;;-6.13
60731;BMP280;46580;52.114;11.674;2022-12-18T07:38:14;102890.38;;;-6.07
60731;BMP280;46580;52.114;11.674;2022-12-18T07:40:39;102887.88;;;-6.07
60731;BMP280;46580;52.114;11.674;2022-12-18T07:43:05;102889.06;;;-5.92
60731;BMP280;46580;52.114;11.674;2022-12-18T07:45:30;102891.56;;;-5.93
60731;BMP280;46580;52.114;11.674;2022-12-18T07:47:56;102890.03;;;-5.87
60731;BMP280;46580;52.114;11.674;2022-12-18T07:50:21;102891.25;;;-6.05
60731;BMP280;46580;52.114;11.674;2022-12-18T07:52:47;102879.81;;;-5.94
60731;BMP280;46580;52.114;11.674;2022-12-18T07:55:12;102891.19;;;-6.08
60731;BMP280;46580;52.114;11.674;2022-12-18T07:57:38;102890.88;;;-6.20
60731;BMP280;46580;52.114;11.674;2022-12-18T08:00:04;102896.91;;;-6.12
60731;BMP280;46580;52.114;11.674;2022-12-18T08:02:32;102896.13;;;-6.11
60731;BMP280;46580;52.114;11.674;2022-12-18T08:04:57;102910.22;;;-6.16
60731;BMP280;46580;52.114;11.674;2022-12-18T08:07:23;102909.22;;;-6.22
60731;BMP280;46580;52.114;11.674;2022-12-18T08:09:49;102912.56;;;-6.22
60731;BMP280;46580;52.114;11.674;2022-12-18T08:12:14;102915.22;;;-6.16
60731;BMP280;46580;52.114;11.674;2022-12-18T08:14:39;102916.91;;;-6.15
60731;BMP280;46580;52.114;11.674;2022-12-18T08:17:05;102911.97;;;-6.12
60731;BMP280;46580;52.114;11.674;2022-12-18T08:19:30;102907.75;;;-6.13
60731;BMP280;46580;52.114;11.674;2022-12-18T08:21:55;102907.44;;;-5.92
60731;BMP280;46580;52.114;11.674;2022-12-18T08:24:22;102919.56;;;-6.09
60731;BMP280;46580;52.114;11.674;2022-12-18T08:26:47;102919.00;;;-5.98
60731;BMP280;46580;52.114;11.674;2022-12-18T08:29:12;102929.97;;;-5.94
60731;BMP280;46580;52.114;11.674;2022-12-18T08:31:38;102922.69;;;-5.84
60731;BMP280;46580;52.114;11.674;2022-12-18T08:34:03;102926.56;;;-5.96
60731;BMP280;46580;52.114;11.674;2022-12-18T08:36:29;102918.94;;;-6.01
60731;BMP280;46580;52.114;11.674;2022-12-18T08:38:54;102918.38;;;-6.23
60731;BMP280;46580;52.114;11.674;2022-12-18T08:41:21;102922.72;;;-6.16
60731;BMP280;46580;52.114;11.674;2022-12-18T08:43:47;102915.94;;;-6.20
60731;BMP280;46580;52.114;11.674;2022-12-18T08:46:34;102919.34;;;-6.18
60731;BMP280;46580;52.114;11.674;2022-12-18T08:49:01;102921.03;;;-6.17
60731;BMP280;46580;52.114;11.674;2022-12-18T08:51:27;102912.56;;;-6.22
60731;BMP280;46580;52.114;11.674;2022-12-18T08:53:52;102917.56;;;-6.22
60731;BMP280;46580;52.114;11.674;2022-12-18T08:56:18;102915.03;;;-6.23
60731;BMP280;46580;52.114;11.674;2022-12-18T08:58:43;102909.53;;;-6.09
60731;BMP280;46580;52.114;11.674;2022-12-18T09:01:11;102918.16;;;-5.98
60731;BMP280;46580;52.114;11.674;2022-12-18T09:03:37;102908.34;;;-5.90
60731;BMP280;46580;52.114;11.674;2022-12-18T09:06:03;102900.03;;;-5.89
60731;BMP280;46580;52.114;11.674;2022-12-18T09:08:29;102903.19;;;-5.95
60731;BMP280;46580;52.114;11.674;2022-12-18T09:10:55;102903.59;;;-6.12
60731;BMP280;46580;52.114;11.674;2022-12-18T09:13:21;102902.75;;;-6.13
60731;BMP280;46580;52.114;11.674;2022-12-18T09:15:49;102903.63;;;-6.11
60731;BMP280;46580;52.114;11.674;2022-12-18T09:18:17;102905.22;;;-6.14
60731;BMP280;46580;52.114;11.674;2022-12-18T09:20:42;102902.34;;;-5.96
60731;BMP280;46580;52.114;11.674;2022-12-18T09:23:08;102904.03;;;-5.95
60731;BMP280;46580;52.114;11.674;2022-12-18T09:25:37;102903.06;;;-6.01
60731;BMP280;46580;52.114;11.674;2022-12-18T09:28:10;102889.03;;;-5.93
60731;BMP280;46580;52.114;11.674;2022-12-18T09:30:43;102891.38;;;-6.01
60731;BMP280;46580;52.114;11.674;2022-12-18T09:33:12;102868.31;;;-5.87
60731;BMP280;46580;52.114;11.674;2022-12-18T09:35:40;102877.41;;;-5.90
60731;BMP280;46580;52.114;11.674;2022-12-18T09:38:08;102880.81;;;-5.88
60731;BMP280;46580;52.114;11.674;2022-12-18T09:40:40;102865.81;;;-5.85
60731;BMP280;46580;52.114;11.674;2022-12-18T09:43:26;102866.88;;;-5.76
60731;BMP280;46580;52.114;11.674;2022-12-18T09:46:10;102860.28;;;-5.71
60731;BMP280;46580;52.114;11.674;2022-12-18T09:48:47;102858.59;;;-5.72
60731;BMP280;46580;52.114;11.674;2022-12-18T09:51:14;102852.25;;;-5.56
60731;BMP280;46580;52.114;11.674;2022-12-18T09:53:42;102854.94;;;-5.48
60731;BMP280;46580;52.114;11.674;2022-12-18T09:56:16;102853.03;;;-5.58
60731;BMP280;46580;52.114;11.674;2022-12-18T09:58:51;102854.84;;;-5.53
60731;BMP280;46580;52.114;11.674;2022-12-18T10:01:22;102844.25;;;-5.40
60731;BMP280;46580;52.114;11.674;2022-12-18T10:03:52;102841.72;;;-5.40
60731;BMP280;46580;52.114;11.674;2022-12-18T10:06:37;102839.34;;;-5.34
60731;BMP280;46580;52.114;11.674;2022-12-18T10:09:19;102842.75;;;-5.31
60731;BMP280;46580;52.114;11.674;2022-12-18T10:15:02;102849.03;;;-5.10
60731;BMP280;46580;52.114;11.674;2022-12-18T10:20:32;102836.44;;;-5.13
60731;BMP280;46580;52.114;11.674;2022-12-18T10:28:14;102825.03;;;-4.96
60731;BMP280;46580;52.114;11.674;2022-12-18T10:30:42;102825.09;;;-4.93
60731;BMP280;46580;52.114;11.674;2022-12-18T10:33:20;102822.75;;;-4.83
60731;BMP280;46580;52.114;11.674;2022-12-18T10:35:48;102819.44;;;-4.82
60731;BMP280;46580;52.114;11.674;2022-12-18T10:43:48;102810.56;;;-4.63
60731;BMP280;46580;52.114;11.674;2022-12-18T10:46:20;102820.75;;;-4.55
60731;BMP280;46580;52.114;11.674;2022-12-18T10:56:27;102827.78;;;-4.35
60731;BMP280;46580;52.114;11.674;2022-12-18T10:59:05;102828.00;;;-4.22
60731;BMP280;46580;52.114;11.674;2022-12-18T11:01:58;102840.44;;;-4.32
60731;BMP280;46580;52.114;11.674;2022-12-18T11:04:28;102841.56;;;-4.14
60731;BMP280;46580;52.114;11.674;2022-12-18T11:07:00;102862.22;;;-4.31
60731;BMP280;46580;52.114;11.674;2022-12-18T11:09:30;102846.50;;;-4.17
60731;BMP280;46580;52.114;11.674;2022-12-18T11:12:14;102851.53;;;-4.17
60731;BMP280;46580;52.114;11.674;2022-12-18T11:14:47;102854.94;;;-4.15
60731;BMP280;46580;52.114;11.674;2022-12-18T11:17:22;102853.50;;;-4.00
60731;BMP280;46580;52.114;11.674;2022-12-18T11:19:56;102844.19;;;-4.07
60731;BMP280;46580;52.114;11.674;2022-12-18T11:22:28;102835.97;;;-3.96
60731;BMP280;46580;52.114;11.674;2022-12-18T11:27:39;102825.06;;;-3.98
60731;BMP280;46580;52.114;11.674;2022-12-18T11:30:31;102823.59;;;-3.84
60731;BMP280;46580;52.114;11.674;2022-12-18T11:33:21;102815.00;;;-3.96
60731;BMP280;46580;52.114;11.674;2022-12-18T11:35:57;102810.97;;;-3.86
60731;BMP280;46580;52.114;11.674;2022-12-18T11:38:35;102818.72;;;-3.72
60731;BMP280;46580;52.114;11.674;2022-12-18T11:41:32;102816.81;;;-3.88
60731;BMP280;46580;52.114;11.674;2022-12-18T11:44:35;102823.59;;;-3.83
60731;BMP280;46580;52.114;11.674;2022-12-18T11:47:09;102815.31;;;-3.74
60731;BMP280;46580;52.114;11.674;2022-12-18T11:49:38;102815.19;;;-3.83
60731;BMP280;46580;52.114;11.674;2022-12-18T11:52:28;102811.09;;;-3.77
60731;BMP280;46580;52.114;11.674;2022-12-18T11:55:00;102817.09;;;-3.68
60731;BMP280;46580;52.114;11.674;2022-12-18T12:11:10;102794.41;;;-3.71
60731;BMP280;46580;52.114;11.674;2022-12-18T12:17:11;102811.03;;;-3.81
60731;BMP280;46580;52.114;11.674;2022-12-18T12:36:33;102779.88;;;-3.25
60731;BMP280;46580;52.114;11.674;2022-12-18T12:39:08;102777.53;;;-3.09
60731;BMP280;46580;52.114;11.674;2022-12-18T12:41:36;102770.78;;;-3.13
60731;BMP280;46580;52.114;11.674;2022-12-18T12:44:27;102767.56;;;-3.00
60731;BMP280;46580;52.114;11.674;2022-12-18T12:46:57;102770.72;;;-3.16
60731;BMP280;46580;52.114;11.674;2022-12-18T12:49:27;102754.66;;;-3.28
60731;BMP280;46580;52.114;11.674;2022-12-18T12:52:07;102763.72;;;-3.42
60731;BMP280;46580;52.114;11.674;2022-12-18T12:54:35;102767.28;;;-3.27
60731;BMP280;46580;52.114;11.674;2022-12-18T12:57:22;102773.59;;;-2.84
60731;BMP280;46580;52.114;11.674;2022-12-18T13:00:25;102766.84;;;-2.86
60731;BMP280;46580;52.114;11.674;2022-12-18T13:05:51;102762.03;;;-2.61
60731;BMP280;46580;52.114;11.674;2022-12-18T13:08:29;102755.41;;;-2.51
60731;BMP280;46580;52.114;11.674;2022-12-18T13:10:57;102746.06;;;-2.62
60731;BMP280;46580;52.114;11.674;2022-12-18T13:13:56;102737.66;;;-2.62
60731;BMP280;46580;52.114;11.674;2022-12-18T13:16:23;102736.56;;;-2.89
60731;BMP280;46580;52.114;11.674;2022-12-18T13:18:54;102740.97;;;-2.71
60731;BMP280;46580;52.114;11.674;2022-12-18T13:23:50;102730.59;;;-3.04
60731;BMP280;46580;52.114;11.674;2022-12-18T13:31:12;102722.03;;;-3.16
60731;BMP280;46580;52.114;11.674;2022-12-18T13:33:39;102724.41;;;-3.30
60731;BMP280;46580;52.114;11.674;2022-12-18T13:41:43;102715.81;;;-3.49
60731;BMP280;46580;52.114;11.674;2022-12-18T13:44:33;102711.53;;;-3.56
60731;BMP280;46580;52.114;11.674;2022-12-18T13:47:02;102709.78;;;-3.63
60731;BMP280;46580;52.114;11.674;2022-12-18T13:49:36;102708.94;;;-3.65
60731;BMP280;46580;52.114;11.674;2022-12-18T13:52:16;102717.44;;;-3.54
60731;BMP280;46580;52.114;11.674;2022-12-18T13:54:46;102718.34;;;-3.49
60731;BMP280;46580;52.114;11.674;2022-12-18T13:57:32;102719.91;;;-3.57
60731;BMP280;46580;52.114;11.674;2022-12-18T14:00:28;102724.03;;;-3.66
60731;BMP280;46580;52.114;11.674;2022-12-18T14:03:15;102717.25;;;-3.71
60731;BMP280;46580;52.114;11.674;2022-12-18T14:05:40;102709.66;;;-3.74
60731;BMP280;46580;52.114;11.674;2022-12-18T14:08:12;102710.41;;;-3.81
60731;BMP280;46580;52.114;11.674;2022-12-18T14:10:44;102704.41;;;-3.92
60731;BMP280;46580;52.114;11.674;2022-12-18T14:13:13;102705.25;;;-3.91
60731;BMP280;46580;52.114;11.674;2022-12-18T14:15:41;102711.88;;;-3.98
60731;BMP280;46580;52.114;11.674;2022-12-18T14:18:48;102702.56;;;-4.05
60731;BMP280;46580;52.114;11.674;2022-12-18T14:21:20;102695.16;;;-3.94
60731;BMP280;46580;52.114;11.674;2022-12-18T14:23:47;102695.09;;;-3.97
60731;BMP280;46580;52.114;11.674;2022-12-18T14:28:53;102701.22;;;-3.76
60731;BMP280;46580;52.114;11.674;2022-12-18T14:31:25;102696.06;;;-3.88
60731;BMP280;46580;52.114;11.674;2022-12-18T14:33:54;102693.59;;;-3.84
60731;BMP280;46580;52.114;11.674;2022-12-18T14:36:23;102696.97;;;-3.82
60731;BMP280;46580;52.114;11.674;2022-12-18T14:38:56;102709.56;;;-3.82
60731;BMP280;46580;52.114;11.674;2022-12-18T14:41:22;102702.16;;;-3.70
60731;BMP280;46580;52.114;11.674;2022-12-18T14:43:51;102699.41;;;-3.89
60731;BMP280;46580;52.114;11.674;2022-12-18T14:46:37;102703.59;;;-3.90
60731;BMP280;46580;52.114;11.674;2022-12-18T14:49:50;102701.06;;;-3.91
60731;BMP280;46580;52.114;11.674;2022-12-18T14:51:55;102696.91;;;-3.88
60731;BMP280;46580;52.114;11.674;2022-12-18T14:54:22;102707.69;;;-3.96
60731;BMP280;46580;52.114;11.674;2022-12-18T14:59:26;102724.47;;;-3.98
60731;BMP280;46580;52.114;11.674;2022-12-18T15:04:29;102716.25;;;-3.85
60731;BMP280;46580;52.114;11.674;2022-12-18T15:07:20;102708.69;;;-3.85
60731;BMP280;46580;52.114;11.674;2022-12-18T15:15:46;102706.13;;;-3.88
60731;BMP280;46580;52.114;11.674;2022-12-18T15:18:16;102705.19;;;-3.96
60731;BMP280;46580;52.114;11.674;2022-12-18T15:20:54;102700.94;;;-4.00
60731;BMP280;46580;52.114;11.674;2022-12-18T15:23:31;102699.22;;;-4.04
60731;BMP280;46580;52.114;11.674;2022-12-18T15:26:04;102679.25;;;-3.92
60731;BMP280;46580;52.114;11.674;2022-12-18T15:28:35;102679.88;;;-4.09
60731;BMP280;46580;52.114;11.674;2022-12-18T15:36:08;102678.09;;;-4.16
60731;BMP280;46580;52.114;11.674;2022-12-18T15:38:34;102674.81;;;-4.10
60731;BMP280;46580;52.114;11.674;2022-12-18T15:41:00;102683.13;;;-4.16
60731;BMP280;46580;52.114;11.674;2022-12-18T15:43:27;102689.91;;;-4.12
60731;BMP280;46580;52.114;11.674;2022-12-18T15:45:59;102694.19;;;-4.04
60731;BMP280;46580;52.114;11.674;2022-12-18T15:48:24;102694.22;;;-4.01
60731;BMP280;46580;52.114;11.674;2022-12-18T15:50:52;102688.31;;;-4.04
60731;BMP280;46580;52.114;11.674;2022-12-18T15:53:18;102692.41;;;-4.10
60731;BMP280;46580;52.114;11.674;2022-12-18T15:55:45;102682.28;;;-4.16
60731;BMP280;46580;52.114;11.674;2022-12-18T15:58:29;102672.97;;;-4.23